Galbraith Lake Airport


Codes: PAGB/GBH
Name: Galbraith Lake Airport
City: Galbraith Lake
Country: United States
Elevation: 2663 ft.
Wikipedia:

Photos at Galbraith Lake Airport


   Photos courtesy of SpottingLog. You can add your own sightings and photos by signing up for a free trial today.



No photos found.

Weather at Galbraith Lake Airport


Time (UTC)DescriptionTempratureWindCloud coverageVisibilityPressureHumidity
15-Apr-2024 18:00Broken Clouds-12°C20 mph, S58%10000m1022hPa79%
15-Apr-2024 21:00Scattered Clouds-9°C20 mph, S48%10000m1021hPa78%
16-Apr-2024 00:00Scattered Clouds-6°C22 mph, S46%10000m1019hPa76%
16-Apr-2024 03:00Scattered Clouds-6°C20 mph, S50%10000m1019hPa77%
16-Apr-2024 06:00Broken Clouds-7°C22 mph, S63%10000m1018hPa76%
16-Apr-2024 09:00Overcast Clouds-7°C20 mph, S99%10000m1018hPa77%
16-Apr-2024 12:00Overcast Clouds-5°C20 mph, S100%10000m1017hPa66%
16-Apr-2024 15:00Overcast Clouds-9°C13 mph, SE100%10000m1018hPa79%
16-Apr-2024 18:00Overcast Clouds-7°C18 mph, SE100%10000m1018hPa81%
16-Apr-2024 21:00Overcast Clouds-3°C16 mph, S100%10000m1018hPa77%
17-Apr-2024 00:00Overcast Clouds-2°C16 mph, S89%10000m1019hPa76%
17-Apr-2024 03:00Broken Clouds-2°C16 mph, S65%10000m1022hPa78%
17-Apr-2024 06:00Broken Clouds-4°C16 mph, S82%10000m1024hPa82%
17-Apr-2024 09:00Broken Clouds-4°C16 mph, S81%10000m1026hPa82%
17-Apr-2024 12:00Overcast Clouds-5°C11 mph, S90%10000m1027hPa83%
17-Apr-2024 15:00Overcast Clouds-6°C9 mph, S99%10000m1028hPa84%
17-Apr-2024 18:00Overcast Clouds-3°C7 mph, S87%10000m1026hPa80%
17-Apr-2024 21:00Broken Clouds0°C2 mph, E72%10000m1024hPa73%
18-Apr-2024 00:00Overcast Clouds0°C2 mph, NE86%10000m1023hPa77%
18-Apr-2024 03:00Overcast Clouds-2°C0 mph, NE100%10000m1024hPa89%
18-Apr-2024 06:00Overcast Clouds-4°C4 mph, S100%10000m1024hPa83%
18-Apr-2024 09:00Overcast Clouds-5°C7 mph, S100%10000m1025hPa71%
18-Apr-2024 12:00Overcast Clouds-4°C9 mph, S100%10000m1025hPa69%
18-Apr-2024 15:00Overcast Clouds-3°C7 mph, S100%10000m1024hPa68%
18-Apr-2024 18:00Overcast Clouds-2°C2 mph, S100%10000m1025hPa76%
18-Apr-2024 21:00Overcast Clouds0°C2 mph, NE100%10000m1025hPa71%
19-Apr-2024 00:00Overcast Clouds0°C2 mph, NE99%10000m1026hPa83%
19-Apr-2024 03:00Scattered Clouds-2°C2 mph, E45%10000m1026hPa89%
19-Apr-2024 06:00Scattered Clouds-4°C7 mph, S39%10000m1027hPa78%
19-Apr-2024 09:00Scattered Clouds-3°C9 mph, S32%10000m1026hPa66%
19-Apr-2024 12:00Scattered Clouds-2°C9 mph, S38%10000m1025hPa66%
19-Apr-2024 15:00Scattered Clouds-2°C9 mph, S29%10000m1024hPa67%
19-Apr-2024 18:00Scattered Clouds1°C4 mph, S43%10000m1022hPa75%
19-Apr-2024 21:00Broken Clouds2°C0 mph, S62%10000m1021hPa98%
20-Apr-2024 00:00Broken Clouds2°C2 mph, SE67%1571m1020hPa100%
20-Apr-2024 03:00Overcast Clouds1°C2 mph, S88%10000m1020hPa90%
20-Apr-2024 06:00Broken Clouds-3°C7 mph, S84%10000m1021hPa82%
20-Apr-2024 09:00Broken Clouds-3°C7 mph, S64%10000m1020hPa72%
20-Apr-2024 12:00Broken Clouds-4°C7 mph, S65%10000m1020hPa72%
20-Apr-2024 15:00Broken Clouds-4°C7 mph, S73%10000m1019hPa76%